Ibotirama, Brazil
Current Conditions -  °F | °C
As of 9:00 AM on Tuesday 21 Oct 2014 (Local Time) from SBQV Reporting Station
Broken Clouds Broken Clouds  
Wind Chill: 77°   Ceiling: 1500
Heat Index: 79°   Visibility: 6mi
Dew Point: 59°   Wind: 12mph
Humidity: 54%   Direction: 120°ESE
Pressure: 30.12"   Gusts: NA
Location:  12.19°S, 43.22°W
Report Text: SBQV 211200Z 12010KT 9999 BKN015 25/15 Q1020
Loading
Personal Weather Stations






























Interactive Weather Map
Tropical Storm Tracking
New forecast layout! Learn more

10-Day Weather Forecast

Advertisements
Track Severe Weather on mobile